Time;durP1;ratioP1;P1;durP2;ratioP2;P2;SDS_P1;SDS_P2;PMS_P1;PMS_P2;Temp;Humidity;BMP_temperature;BMP_pressure;BME280_temperature;BME280_humidity;BME280_pressure;Samples;Min_cycle;Max_cycle;Signal;HPM_P1;HPM_P2
2022/10/01 00:01:50;;;;;;;;;;;;;;;;;;5060292;28;1068;-79
2022/10/01 00:04:16;;;;;;;;;;;;;;;;;;5059820;28;1909;-79
2022/10/01 00:06:42;;;;;;;;;;;;;;;;;;5058494;28;1060;-79
2022/10/01 00:09:08;;;;;;;;;;;;;;;;;;5057664;28;1354;-78
2022/10/01 00:11:34;;;;;;;;;;;;;;;;;;5058944;28;1083;-79
2022/10/01 00:14:01;;;;;;;;;;;;;;;;;;5075403;28;1107;-78
2022/10/01 00:16:28;;;;;;;;;;;;;;;;;;5070722;28;1049;-79
2022/10/01 00:18:56;;;;;;;;;;;;;;;;;;5058302;28;1321;-79
2022/10/01 00:21:23;;;;;;;;;;;;;;;;;;5057353;28;1566;-80
2022/10/01 00:23:53;;;;;;;;;;;;;;;;;;5058199;28;1892;-79
2022/10/01 00:26:21;;;;;;;;;;;;;;;;;;5058342;28;1134;-79
2022/10/01 00:28:48;;;;;;;;;;;;;;;;;;5058169;28;1370;-78
2022/10/01 00:31:15;;;;;;;;;;;;;;;;;;5071995;28;1266;-77
2022/10/01 00:33:41;;;;;;;;;;;;;;;;;;5074447;28;1154;-78
2022/10/01 00:36:09;;;;;;;;;;;;;;;;;;5071041;28;929;-79
2022/10/01 00:38:36;;;;;;;;;;;;;;;;;;5057070;28;1421;-78
2022/10/01 00:41:02;;;;;;;;;;;;;;;;;;5057025;28;1039;-78
2022/10/01 00:43:29;;;;;;;;;;;;;;;;;;5056578;28;1978;-79
2022/10/01 00:45:58;;;;;;;;;;;;;;;;;;5059480;28;1075;-79
2022/10/01 00:48:24;;;;;;;;;;;;;;;;;;5063656;28;731;-79
2022/10/01 00:50:50;;;;;;;;;;;;;;;;;;5064281;28;1286;-79
2022/10/01 00:53:18;;;;;;;;;;;;;;;;;;5063806;28;975;-79
2022/10/01 00:55:45;;;;;;;;;;;;;;;;;;5063771;28;1506;-79
2022/10/01 00:58:12;;;;;;;;;;;;;;;;;;5063946;28;1091;-79
2022/10/01 01:00:38;;;;;;;;;;;;;;;;;;5063752;28;1399;-79
2022/10/01 01:03:04;;;;;;;;;;;;;;;;;;5062358;28;1891;-80
2022/10/01 01:05:31;;;;;;;;;;;;;;;;;;5063675;28;1067;-79
2022/10/01 01:08:01;;;;;;;;;;;;;;;;;;5063712;28;779;-79
2022/10/01 01:10:30;;;;;;;;;;;;;;;;;;5064222;28;1418;-79
2022/10/01 01:13:00;;;;;;;;;;;;;;;;;;5063315;28;937;-79
2022/10/01 01:15:27;;;;;;;;;;;;;;;;;;5064107;28;1108;-79
2022/10/01 01:17:54;;;;;;;;;;;;;;;;;;5064305;28;1067;-79
2022/10/01 01:20:27;;;;;;;;;;;;;;;;;;5063661;28;1330;-79
2022/10/01 01:22:54;;;;;;;;;;;;;;;;;;5063261;28;1202;-79
2022/10/01 01:25:22;;;;;;;;;;;;;;;;;;5063857;28;2032;-80
2022/10/01 01:27:49;;;;;;;;;;;;;;;;;;5064711;28;1135;-79
2022/10/01 01:30:17;;;;;;;;;;;;;;;;;;5063913;28;1410;-80
2022/10/01 01:32:46;;;;;;;;;;;;;;;;;;5061874;28;1076;-79
2022/10/01 01:35:15;;;;;;;;;;;;;;;;;;5063653;28;1186;-80
2022/10/01 01:37:42;;;;;;;;;;;;;;;;;;5063940;28;1299;-79
2022/10/01 01:42:40;;;;;;;;;;;;;;;;;;5033834;28;1359;-74
2022/10/01 01:45:08;;;;;;;;;;;;;;;;;;5019566;28;1914;-76
2022/10/01 01:47:37;;;;;;;;;;;;;;;;;;5036022;28;1142;-75
2022/10/01 01:50:03;;;;;;;;;;;;;;;;;;5035913;28;1315;-76
2022/10/01 01:52:30;;;;;;;;;;;;;;;;;;5035852;28;1355;-73
2022/10/01 01:54:56;;;;;;;;;;;;;;;;;;5035858;28;1184;-73
2022/10/01 01:57:22;;;;;;;;;;;;;;;;;;5035370;28;1120;-73
2022/10/01 01:59:49;;;;;;;;;;;;;;;;;;5033922;28;1114;-73
2022/10/01 02:02:15;;;;;;;;;;;;;;;;;;5032433;28;1398;-74
2022/10/01 02:04:43;;;;;;;;;;;;;;;;;;5034239;28;1973;-73
2022/10/01 02:07:15;;;;;;;;;;;;;;;;;;5034240;28;1040;-73
2022/10/01 02:09:43;;;;;;;;;;;;;;;;;;5033924;28;1056;-73
2022/10/01 02:12:11;;;;;;;;;;;;;;;;;;5033347;28;1400;-73
2022/10/01 02:14:38;;;;;;;;;;;;;;;;;;5033687;28;1100;-73
2022/10/01 02:17:06;;;;;;;;;;;;;;;;;;5034001;28;811;-73
2022/10/01 02:19:34;;;;;;;;;;;;;;;;;;5032313;28;1437;-74
2022/10/01 02:22:02;;;;;;;;;;;;;;;;;;5033430;28;1300;-73
2022/10/01 02:24:33;;;;;;;;;;;;;;;;;;5033455;28;1914;-73
2022/10/01 02:26:59;;;;;;;;;;;;;;;;;;5033597;28;1063;-73
2022/10/01 02:29:25;;;;;;;;;;;;;;;;;;5015598;28;1393;-73
2022/10/01 02:31:54;;;;;;;;;;;;;;;;;;5033222;28;1304;-73
2022/10/01 02:34:20;;;;;;;;;;;;;;;;;;5033627;28;1250;-72
2022/10/01 02:36:46;;;;;;;;;;;;;;;;;;5033343;28;1057;-73
2022/10/01 02:39:14;;;;;;;;;;;;;;;;;;5033444;28;1110;-73
2022/10/01 02:41:40;;;;;;;;;;;;;;;;;;5032613;28;1357;-72
2022/10/01 02:44:07;;;;;;;;;;;;;;;;;;5033414;28;1910;-73
2022/10/01 02:46:36;;;;;;;;;;;;;;;;;;5033229;28;958;-73
2022/10/01 02:49:03;;;;;;;;;;;;;;;;;;5031894;28;1267;-73
2022/10/01 02:51:31;;;;;;;;;;;;;;;;;;5032666;28;1327;-73
2022/10/01 02:53:59;;;;;;;;;;;;;;;;;;5033135;28;801;-73
2022/10/01 02:59:10;;;;;;;;;;;;;;;;;;5032931;28;997;-73
2022/10/01 03:01:36;;;;;;;;;;;;;;;;;;5034923;28;1461;-73
2022/10/01 03:04:02;;;;;;;;;;;;;;;;;;5032906;28;1903;-73
2022/10/01 03:06:29;;;;;;;;;;;;;;;;;;5032726;28;1044;-73
2022/10/01 03:08:56;;;;;;;;;;;;;;;;;;5032551;28;901;-73
2022/10/01 03:11:22;;;;;;;;;;;;;;;;;;5030982;28;1424;-73
2022/10/01 03:13:50;;;;;;;;;;;;;;;;;;5032936;28;970;-72
2022/10/01 03:16:16;;;;;;;;;;;;;;;;;;5032759;28;1060;-73
2022/10/01 03:18:42;;;;;;;;;;;;;;;;;;5031164;28;1210;-73
2022/10/01 03:21:08;;;;;;;;;;;;;;;;;;5032591;28;1322;-73
2022/10/01 03:23:34;;;;;;;;;;;;;;;;;;5032036;28;1088;-73
2022/10/01 03:26:01;;;;;;;;;;;;;;;;;;5032474;28;1922;-74
2022/10/01 03:28:27;;;;;;;;;;;;;;;;;;5031014;28;1220;-73
2022/10/01 03:31:03;;;;;;;;;;;;;;;;;;5031299;28;1351;-73
2022/10/01 03:33:29;;;;;;;;;;;;;;;;;;5031973;28;1055;-72
2022/10/01 03:35:55;;;;;;;;;;;;;;;;;;5032274;28;1064;-73
2022/10/01 03:38:21;;;;;;;;;;;;;;;;;;5032499;28;986;-73
2022/10/01 03:40:48;;;;;;;;;;;;;;;;;;5032069;28;1406;-73
2022/10/01 03:43:15;;;;;;;;;;;;;;;;;;5031796;28;834;-72
2022/10/01 03:45:41;;;;;;;;;;;;;;;;;;5032113;28;1918;-73
2022/10/01 03:48:08;;;;;;;;;;;;;;;;;;5032117;28;1127;-74
2022/10/01 03:50:35;;;;;;;;;;;;;;;;;;5031885;28;1326;-73
2022/10/01 03:53:01;;;;;;;;;;;;;;;;;;5031663;28;1024;-73
2022/10/01 03:55:27;;;;;;;;;;;;;;;;;;5031975;28;1068;-73
2022/10/01 03:57:54;;;;;;;;;;;;;;;;;;5030635;28;1196;-73
2022/10/01 04:00:20;;;;;;;;;;;;;;;;;;5030445;28;1326;-73
2022/10/01 04:02:46;;;;;;;;;;;;;;;;;;5031481;28;1103;-73
2022/10/01 04:05:14;;;;;;;;;;;;;;;;;;5031600;28;1985;-73
2022/10/01 04:07:40;;;;;;;;;;;;;;;;;;5031773;28;887;-73
2022/10/01 04:10:07;;;;;;;;;;;;;;;;;;5031823;28;1310;-73
2022/10/01 04:12:33;;;;;;;;;;;;;;;;;;5031017;28;1048;-73
2022/10/01 04:14:59;;;;;;;;;;;;;;;;;;5018654;28;1650;-73
2022/10/01 04:17:26;;;;;;;;;;;;;;;;;;5039285;28;1233;-73
2022/10/01 04:19:52;;;;;;;;;;;;;;;;;;5031422;28;1253;-73
2022/10/01 04:22:19;;;;;;;;;;;;;;;;;;5012956;28;1572;-73
2022/10/01 04:24:45;;;;;;;;;;;;;;;;;;5031291;28;1922;-72
2022/10/01 04:27:12;;;;;;;;;;;;;;;;;;5031118;28;1221;-75
2022/10/01 04:29:38;;;;;;;;;;;;;;;;;;5030730;28;1232;-75
2022/10/01 04:32:04;;;;;;;;;;;;;;;;;;5029779;28;1588;-74
2022/10/01 04:37:10;;;;;;;;;;;;;;;;;;5026351;28;1457;-75
2022/10/01 04:39:38;;;;;;;;;;;;;;;;;;5025298;28;1211;-75
2022/10/01 04:42:04;;;;;;;;;;;;;;;;;;5013008;28;1502;-75
2022/10/01 04:44:30;;;;;;;;;;;;;;;;;;5030404;28;1973;-75
2022/10/01 04:46:56;;;;;;;;;;;;;;;;;;5022740;28;1159;-75
2022/10/01 04:49:23;;;;;;;;;;;;;;;;;;5012813;28;1376;-75
2022/10/01 04:51:49;;;;;;;;;;;;;;;;;;5026694;28;1391;-75
2022/10/01 04:54:15;;;;;;;;;;;;;;;;;;5031023;28;1381;-73
2022/10/01 04:56:42;;;;;;;;;;;;;;;;;;5045564;28;1263;-75
2022/10/01 04:59:09;;;;;;;;;;;;;;;;;;5030432;28;1316;-75
2022/10/01 05:01:35;;;;;;;;;;;;;;;;;;5020562;28;1396;-74
2022/10/01 05:04:01;;;;;;;;;;;;;;;;;;5030386;28;1431;-75
2022/10/01 05:06:27;;;;;;;;;;;;;;;;;;5030649;28;1914;-75
2022/10/01 05:08:53;;;;;;;;;;;;;;;;;;5030716;28;1194;-75
2022/10/01 05:11:19;;;;;;;;;;;;;;;;;;5030573;28;1499;-74
2022/10/01 05:13:47;;;;;;;;;;;;;;;;;;5030235;28;1384;-75
2022/10/01 05:16:13;;;;;;;;;;;;;;;;;;5030811;28;1324;-75
2022/10/01 05:18:39;;;;;;;;;;;;;;;;;;5030854;28;926;-74
2022/10/01 05:21:06;;;;;;;;;;;;;;;;;;5013176;28;1324;-75
2022/10/01 05:23:32;;;;;;;;;;;;;;;;;;5030605;28;1081;-74
2022/10/01 05:25:58;;;;;;;;;;;;;;;;;;5030577;28;1910;-75
2022/10/01 05:28:26;;;;;;;;;;;;;;;;;;5030683;28;1054;-75
2022/10/01 05:30:55;;;;;;;;;;;;;;;;;;5029840;28;1483;-74
2022/10/01 05:33:21;;;;;;;;;;;;;;;;;;5021594;28;1379;-75
2022/10/01 05:35:47;;;;;;;;;;;;;;;;;;5029974;28;1156;-75
2022/10/01 05:38:13;;;;;;;;;;;;;;;;;;5031730;28;1462;-75
2022/10/01 05:40:39;;;;;;;;;;;;;;;;;;5031704;28;1416;-75
2022/10/01 05:43:06;;;;;;;;;;;;;;;;;;5024830;28;1068;-75
2022/10/01 05:45:32;;;;;;;;;;;;;;;;;;5032139;28;1914;-75
2022/10/01 05:48:00;;;;;;;;;;;;;;;;;;5032411;28;910;-75
2022/10/01 05:50:27;;;;;;;;;;;;;;;;;;5031831;28;1341;-75
2022/10/01 05:52:54;;;;;;;;;;;;;;;;;;5023422;28;1389;-75
2022/10/01 05:55:21;;;;;;;;;;;;;;;;;;5017442;28;1483;-75
2022/10/01 05:57:53;;;;;;;;;;;;;;;;;;5026839;28;1309;-75
2022/10/01 06:00:20;;;;;;;;;;;;;;;;;;5045889;28;1395;-75
2022/10/01 06:02:49;;;;;;;;;;;;;;;;;;5030182;28;1297;-75
2022/10/01 06:05:17;;;;;;;;;;;;;;;;;;5031193;28;1977;-75
2022/10/01 06:07:43;;;;;;;;;;;;;;;;;;5015130;28;1424;-74
2022/10/01 06:10:09;;;;;;;;;;;;;;;;;;5031938;28;1492;-75
2022/10/01 06:12:35;;;;;;;;;;;;;;;;;;5033772;28;1376;-75
2022/10/01 06:15:01;;;;;;;;;;;;;;;;;;5017419;28;1306;-75
2022/10/01 06:17:28;;;;;;;;;;;;;;;;;;5031376;28;1381;-75
2022/10/01 06:19:54;;;;;;;;;;;;;;;;;;5026161;28;1431;-75
2022/10/01 06:22:21;;;;;;;;;;;;;;;;;;5030542;28;1575;-75
2022/10/01 06:24:47;;;;;;;;;;;;;;;;;;5011233;28;1954;-75
2022/10/01 06:27:14;;;;;;;;;;;;;;;;;;5034516;28;1729;-75
2022/10/01 06:29:40;;;;;;;;;;;;;;;;;;5025465;28;1479;-74
2022/10/01 06:32:12;;;;;;;;;;;;;;;;;;5005988;28;1412;-75
2022/10/01 06:34:38;;;;;;;;;;;;;;;;;;5038678;28;1405;-75
2022/10/01 06:37:04;;;;;;;;;;;;;;;;;;5029407;28;1408;-75
2022/10/01 06:39:32;;;;;;;;;;;;;;;;;;5021119;28;1417;-74
2022/10/01 06:41:58;;;;;;;;;;;;;;;;;;5027744;28;1433;-74
2022/10/01 06:44:24;;;;;;;;;;;;;;;;;;5031271;28;1873;-75
2022/10/01 06:46:51;;;;;;;;;;;;;;;;;;5042015;28;1985;-75
2022/10/01 06:49:19;;;;;;;;;;;;;;;;;;5028094;28;1612;-75
2022/10/01 06:54:29;;;;;;;;;;;;;;;;;;5035258;28;1699;-75
2022/10/01 06:56:56;;;;;;;;;;;;;;;;;;5032845;28;1446;-76
2022/10/01 06:59:23;;;;;;;;;;;;;;;;;;5042383;28;1677;-75
2022/10/01 07:01:49;;;;;;;;;;;;;;;;;;5027238;28;1491;-75
2022/10/01 07:04:15;;;;;;;;;;;;;;;;;;5027022;28;1443;-75
2022/10/01 07:06:41;;;;;;;;;;;;;;;;;;5028179;28;2013;-75
2022/10/01 07:09:07;;;;;;;;;;;;;;;;;;5023033;28;1415;-75
2022/10/01 07:11:38;;;;;;;;;;;;;;;;;;5029132;28;1840;-75
2022/10/01 07:14:05;;;;;;;;;;;;;;;;;;5030433;28;1578;-76
2022/10/01 07:16:31;;;;;;;;;;;;;;;;;;5030877;28;1665;-75
2022/10/01 07:18:58;;;;;;;;;;;;;;;;;;5024713;28;1894;-75
2022/10/01 07:21:24;;;;;;;;;;;;;;;;;;5028130;28;1559;-75
2022/10/01 07:23:50;;;;;;;;;;;;;;;;;;5027295;28;1788;-76
2022/10/01 07:26:16;;;;;;;;;;;;;;;;;;5009566;28;1980;-75
2022/10/01 07:28:43;;;;;;;;;;;;;;;;;;5019855;28;1405;-75
2022/10/01 07:31:11;;;;;;;;;;;;;;;;;;5009459;28;1490;-75
2022/10/01 07:33:37;;;;;;;;;;;;;;;;;;5012663;28;1825;-75
2022/10/01 07:36:04;;;;;;;;;;;;;;;;;;5027412;28;1476;-75
2022/10/01 07:38:32;;;;;;;;;;;;;;;;;;5029795;28;1658;-75
2022/10/01 07:40:58;;;;;;;;;;;;;;;;;;5026411;28;1481;-75
2022/10/01 07:43:24;;;;;;;;;;;;;;;;;;5020407;28;1404;-74
2022/10/01 07:45:53;;;;;;;;;;;;;;;;;;5009080;28;1984;-75
2022/10/01 07:48:21;;;;;;;;;;;;;;;;;;5028771;28;1410;-75
2022/10/01 07:50:47;;;;;;;;;;;;;;;;;;5025314;22;3564;-73
2022/10/01 07:53:13;;;;;;;;;;;;;;;;;;5019007;28;1414;-72
2022/10/01 07:55:39;;;;;;;;;;;;;;;;;;5022229;28;1627;-74
2022/10/01 07:58:06;;;;;;;;;;;;;;;;;;5005868;28;1403;-74
2022/10/01 08:00:32;;;;;;;;;;;;;;;;;;5020754;28;1578;-75
2022/10/01 08:02:59;;;;;;;;;;;;;;;;;;5019813;28;1285;-74
2022/10/01 08:05:27;;;;;;;;;;;;;;;;;;5027821;28;1930;-74
2022/10/01 08:07:57;;;;;;;;;;;;;;;;;;5021528;28;1242;-74
2022/10/01 08:10:23;;;;;;;;;;;;;;;;;;5001787;28;1568;-74
2022/10/01 08:12:49;;;;;;;;;;;;;;;;;;5003997;28;2505;-73
2022/10/01 08:15:16;;;;;;;;;;;;;;;;;;5006972;28;1200;-75
2022/10/01 08:17:42;;;;;;;;;;;;;;;;;;5002440;28;2470;-74
2022/10/01 08:20:09;;;;;;;;;;;;;;;;;;5003434;28;1479;-74
2022/10/01 08:22:37;;;;;;;;;;;;;;;;;;5019007;28;1365;-74
2022/10/01 08:25:03;;;;;;;;;;;;;;;;;;5010013;28;1663;-74
2022/10/01 08:27:30;;;;;;;;;;;;;;;;;;4998120;28;3016;-74
2022/10/01 08:29:56;;;;;;;;;;;;;;;;;;5007072;28;1487;-75
2022/10/01 08:32:23;;;;;;;;;;;;;;;;;;5002843;28;1512;-74
2022/10/01 08:34:51;;;;;;;;;;;;;;;;;;5010407;28;1409;-76
2022/10/01 08:37:17;;;;;;;;;;;;;;;;;;5021533;28;1257;-73
2022/10/01 08:39:45;;;;;;;;;;;;;;;;;;5016377;28;1405;-75
2022/10/01 08:42:14;;;;;;;;;;;;;;;;;;5026996;28;1499;-73
2022/10/01 08:44:41;;;;;;;;;;;;;;;;;;5020155;28;1452;-76
2022/10/01 08:47:08;;;;;;;;;;;;;;;;;;5016576;28;1915;-75
2022/10/01 08:49:35;;;;;;;;;;;;;;;;;;4995163;28;1401;-76
2022/10/01 08:52:02;;;;;;;;;;;;;;;;;;4972120;28;1404;-75
2022/10/01 08:54:30;;;;;;;;;;;;;;;;;;4990029;28;819;-76
2022/10/01 08:56:59;;;;;;;;;;;;;;;;;;4990333;28;1060;-76
2022/10/01 08:59:28;;;;;;;;;;;;;;;;;;5005595;28;1415;-76
2022/10/01 09:01:54;;;;;;;;;;;;;;;;;;5010207;28;1534;-76
2022/10/01 09:04:20;;;;;;;;;;;;;;;;;;5009452;28;1131;-76
2022/10/01 09:06:46;;;;;;;;;;;;;;;;;;5009954;28;1911;-76
2022/10/01 09:09:18;;;;;;;;;;;;;;;;;;5015614;28;1434;-76
2022/10/01 09:11:48;;;;;;;;;;;;;;;;;;5018190;28;1421;-76
2022/10/01 09:14:19;;;;;;;;;;;;;;;;;;5034686;28;1174;-76
2022/10/01 09:16:47;;;;;;;;;;;;;;;;;;5031711;28;1488;-76
2022/10/01 09:19:17;;;;;;;;;;;;;;;;;;5021259;28;1325;-75
2022/10/01 09:21:46;;;;;;;;;;;;;;;;;;5020684;28;1439;-75
2022/10/01 09:24:13;;;;;;;;;;;;;;;;;;5018200;28;1440;-74
2022/10/01 09:26:40;;;;;;;;;;;;;;;;;;5019622;28;1918;-76
2022/10/01 09:29:08;;;;;;;;;;;;;;;;;;5012456;28;1285;-75
2022/10/01 09:31:37;;;;;;;;;;;;;;;;;;5015083;28;1412;-75
2022/10/01 09:34:05;;;;;;;;;;;;;;;;;;4996517;28;1464;-75
2022/10/01 09:36:34;;;;;;;;;;;;;;;;;;5024804;28;1080;-75
2022/10/01 09:39:02;;;;;;;;;;;;;;;;;;5014913;28;2057;-75
2022/10/01 09:41:30;;;;;;;;;;;;;;;;;;5022959;28;1440;-76
2022/10/01 09:43:56;;;;;;;;;;;;;;;;;;5031427;28;1171;-76
2022/10/01 09:46:22;;;;;;;;;;;;;;;;;;5016463;28;1981;-75
2022/10/01 09:48:51;;;;;;;;;;;;;;;;;;5028597;28;1492;-74
2022/10/01 09:51:19;;;;;;;;;;;;;;;;;;5025726;28;1392;-74
2022/10/01 09:53:46;;;;;;;;;;;;;;;;;;5025421;28;1385;-75
2022/10/01 09:56:14;;;;;;;;;;;;;;;;;;5022980;28;1179;-75
2022/10/01 09:58:41;;;;;;;;;;;;;;;;;;5014675;28;752;-75
2022/10/01 10:01:11;;;;;;;;;;;;;;;;;;5014563;28;1424;-75
2022/10/01 10:03:37;;;;;;;;;;;;;;;;;;5013350;28;1425;-75
2022/10/01 10:06:05;;;;;;;;;;;;;;;;;;5007274;28;1904;-75
2022/10/01 10:08:33;;;;;;;;;;;;;;;;;;5026703;28;1614;-75
2022/10/01 10:11:00;;;;;;;;;;;;;;;;;;5020748;28;1460;-75
2022/10/01 10:13:30;;;;;;;;;;;;;;;;;;5023368;28;1561;-75
2022/10/01 10:15:57;;;;;;;;;;;;;;;;;;5028877;28;1631;-75
2022/10/01 10:18:24;;;;;;;;;;;;;;;;;;5025106;28;1214;-75
2022/10/01 10:20:51;;;;;;;;;;;;;;;;;;5033871;28;1365;-76
2022/10/01 10:23:19;;;;;;;;;;;;;;;;;;5024364;28;1464;-77
2022/10/01 10:25:53;;;;;;;;;;;;;;;;;;5025746;28;1146;-76
2022/10/01 10:28:22;;;;;;;;;;;;;;;;;;5021284;28;1992;-77
2022/10/01 10:30:48;;;;;;;;;;;;;;;;;;5004657;28;1401;-76
2022/10/01 10:33:15;;;;;;;;;;;;;;;;;;5030911;28;1364;-77
2022/10/01 10:35:41;;;;;;;;;;;;;;;;;;5022119;28;1567;-77
2022/10/01 10:38:15;;;;;;;;;;;;;;;;;;5014253;28;1295;-77
2022/10/01 10:40:42;;;;;;;;;;;;;;;;;;5015759;28;1328;-76
2022/10/01 10:43:13;;;;;;;;;;;;;;;;;;5024218;28;1377;-77
2022/10/01 10:45:40;;;;;;;;;;;;;;;;;;5025157;28;1130;-76
2022/10/01 10:48:06;;;;;;;;;;;;;;;;;;5030872;28;1918;-76
2022/10/01 10:50:33;;;;;;;;;;;;;;;;;;5021217;28;1401;-77
2022/10/01 10:52:59;;;;;;;;;;;;;;;;;;5030450;28;1151;-77
2022/10/01 10:55:27;;;;;;;;;;;;;;;;;;5032830;28;1143;-76
2022/10/01 10:57:54;;;;;;;;;;;;;;;;;;5009355;28;1477;-76
2022/10/01 11:00:22;;;;;;;;;;;;;;;;;;5013142;28;1405;-76
2022/10/01 11:02:49;;;;;;;;;;;;;;;;;;4995409;28;1424;-76
2022/10/01 11:05:16;;;;;;;;;;;;;;;;;;5013269;28;818;-76
2022/10/01 11:07:43;;;;;;;;;;;;;;;;;;5009231;28;1915;-76
2022/10/01 11:10:16;;;;;;;;;;;;;;;;;;5022391;28;1424;-76
2022/10/01 11:12:47;;;;;;;;;;;;;;;;;;5012337;28;1073;-76
2022/10/01 11:15:23;;;;;;;;;;;;;;;;;;5013081;28;961;-75
2022/10/01 11:17:59;;;;;;;;;;;;;;;;;;5012102;28;1476;-76
2022/10/01 11:20:32;;;;;;;;;;;;;;;;;;5013379;28;1418;-76
2022/10/01 11:23:03;;;;;;;;;;;;;;;;;;5012581;28;1080;-76
2022/10/01 11:25:32;;;;;;;;;;;;;;;;;;5013427;28;1473;-75
2022/10/01 11:28:00;;;;;;;;;;;;;;;;;;5020560;28;1914;-76
2022/10/01 11:30:29;;;;;;;;;;;;;;;;;;5019366;28;1417;-75
2022/10/01 11:33:02;;;;;;;;;;;;;;;;;;5017509;28;1439;-76
2022/10/01 11:35:31;;;;;;;;;;;;;;;;;;5023629;28;1245;-76
2022/10/01 11:38:07;;;;;;;;;;;;;;;;;;5032654;28;624;-76
2022/10/01 11:40:35;;;;;;;;;;;;;;;;;;5032222;28;1373;-75
2022/10/01 11:43:02;;;;;;;;;;;;;;;;;;5020368;28;1398;-75
2022/10/01 11:45:30;;;;;;;;;;;;;;;;;;5030460;28;1063;-75
2022/10/01 11:47:57;;;;;;;;;;;;;;;;;;5029761;28;1918;-76
2022/10/01 11:50:24;;;;;;;;;;;;;;;;;;5021900;28;1452;-76
2022/10/01 11:52:52;;;;;;;;;;;;;;;;;;5003758;28;1230;-76
2022/10/01 12:01:03;;;;;;;;;;;;;;;;;;4952499;28;1405;-76
2022/10/01 12:03:31;;;;;;;;;;;;;;;;;;5008678;28;1421;-74
2022/10/01 12:05:58;;;;;;;;;;;;;;;;;;5015802;28;1056;-76
2022/10/01 12:08:25;;;;;;;;;;;;;;;;;;5019240;28;1914;-75
2022/10/01 12:10:53;;;;;;;;;;;;;;;;;;5027726;28;1312;-75
2022/10/01 12:13:21;;;;;;;;;;;;;;;;;;5031461;28;984;-74
2022/10/01 12:15:48;;;;;;;;;;;;;;;;;;5031702;28;1147;-75
2022/10/01 12:18:17;;;;;;;;;;;;;;;;;;5021031;28;1381;-75
2022/10/01 12:20:44;;;;;;;;;;;;;;;;;;5018926;28;1413;-77
2022/10/01 12:23:11;;;;;;;;;;;;;;;;;;5038080;28;1430;-78
2022/10/01 12:25:38;;;;;;;;;;;;;;;;;;4994768;28;1312;-78
2022/10/01 12:28:05;;;;;;;;;;;;;;;;;;5019611;28;1914;-77
2022/10/01 12:30:32;;;;;;;;;;;;;;;;;;5015102;28;1349;-77
2022/10/01 12:33:03;;;;;;;;;;;;;;;;;;5013052;28;772;-78
2022/10/01 12:35:50;;;;;;;;;;;;;;;;;;5016378;28;1412;-78
2022/10/01 12:38:20;;;;;;;;;;;;;;;;;;4988760;28;1425;-78
2022/10/01 12:40:49;;;;;;;;;;;;;;;;;;5020068;28;1540;-77
2022/10/01 12:43:28;;;;;;;;;;;;;;;;;;5013513;28;1466;-78
2022/10/01 12:45:56;;;;;;;;;;;;;;;;;;5021284;28;1114;-78
2022/10/01 12:48:24;;;;;;;;;;;;;;;;;;5011859;28;1910;-77
2022/10/01 12:50:52;;;;;;;;;;;;;;;;;;5022905;28;1644;-77
2022/10/01 12:53:23;;;;;;;;;;;;;;;;;;5021782;28;1413;-77
2022/10/01 12:55:57;;;;;;;;;;;;;;;;;;5040279;28;1005;-77
2022/10/01 12:58:42;;;;;;;;;;;;;;;;;;5010291;28;1077;-76
2022/10/01 13:01:10;;;;;;;;;;;;;;;;;;5010729;28;2087;-76
2022/10/01 13:03:41;;;;;;;;;;;;;;;;;;5022419;28;1417;-78
2022/10/01 13:06:12;;;;;;;;;;;;;;;;;;5014101;28;1193;-75
2022/10/01 13:08:47;;;;;;;;;;;;;;;;;;5017307;28;1906;-76
2022/10/01 13:11:19;;;;;;;;;;;;;;;;;;5018741;28;1502;-76
2022/10/01 13:13:45;;;;;;;;;;;;;;;;;;5029026;28;969;-76
2022/10/01 13:16:12;;;;;;;;;;;;;;;;;;5029020;28;2115;-76
2022/10/01 13:18:41;;;;;;;;;;;;;;;;;;5021395;28;1432;-77
2022/10/01 13:21:09;;;;;;;;;;;;;;;;;;5020506;28;1397;-77
2022/10/01 13:23:38;;;;;;;;;;;;;;;;;;5018198;28;1488;-76
2022/10/01 13:26:07;;;;;;;;;;;;;;;;;;5018047;28;1372;-76
2022/10/01 13:28:38;;;;;;;;;;;;;;;;;;5022183;28;1914;-76
2022/10/01 13:31:10;;;;;;;;;;;;;;;;;;5028584;28;1330;-76
2022/10/01 13:33:36;;;;;;;;;;;;;;;;;;5009573;28;1487;-76
2022/10/01 13:36:03;;;;;;;;;;;;;;;;;;5016011;28;1412;-76
2022/10/01 13:38:31;;;;;;;;;;;;;;;;;;5021711;28;1143;-76
2022/10/01 13:40:57;;;;;;;;;;;;;;;;;;5027348;28;1437;-77
2022/10/01 13:43:25;;;;;;;;;;;;;;;;;;5024135;28;1453;-76
2022/10/01 13:45:51;;;;;;;;;;;;;;;;;;5019162;28;1396;-76
2022/10/01 13:48:19;;;;;;;;;;;;;;;;;;5020107;28;1915;-76
2022/10/01 13:51:01;;;;;;;;;;;;;;;;;;5028347;28;1419;-76
2022/10/01 13:53:28;;;;;;;;;;;;;;;;;;5021613;28;1401;-76
2022/10/01 13:55:55;;;;;;;;;;;;;;;;;;5003014;28;1174;-76
2022/10/01 13:58:23;;;;;;;;;;;;;;;;;;5013972;28;1080;-78
2022/10/01 14:00:51;;;;;;;;;;;;;;;;;;5013284;28;1404;-76
2022/10/01 14:03:27;;;;;;;;;;;;;;;;;;5014291;28;1538;-77
2022/10/01 14:05:55;;;;;;;;;;;;;;;;;;5014078;28;1492;-76
2022/10/01 14:08:23;;;;;;;;;;;;;;;;;;5009587;28;1975;-76
2022/10/01 14:16:20;;;;;;;;;;;;;;;;;;5000426;28;1407;-78
2022/10/01 14:18:47;;;;;;;;;;;;;;;;;;5026708;28;1410;-75
2022/10/01 14:21:18;;;;;;;;;;;;;;;;;;5013975;28;1444;-77
2022/10/01 14:23:47;;;;;;;;;;;;;;;;;;5009178;28;1424;-77
2022/10/01 14:26:14;;;;;;;;;;;;;;;;;;4995764;28;1151;-78
2022/10/01 14:28:46;;;;;;;;;;;;;;;;;;5012781;28;1976;-78
2022/10/01 14:31:12;;;;;;;;;;;;;;;;;;4997821;28;1424;-77
2022/10/01 14:34:00;;;;;;;;;;;;;;;;;;5012422;28;1472;-77
2022/10/01 14:36:31;;;;;;;;;;;;;;;;;;5007990;28;1452;-76
2022/10/01 14:39:04;;;;;;;;;;;;;;;;;;5012010;28;1301;-76
2022/10/01 14:41:33;;;;;;;;;;;;;;;;;;5018679;28;1475;-75
2022/10/01 14:43:59;;;;;;;;;;;;;;;;;;5011729;28;1076;-75
2022/10/01 14:46:26;;;;;;;;;;;;;;;;;;4993529;28;1232;-76
2022/10/01 14:48:56;;;;;;;;;;;;;;;;;;5011209;28;1962;-76
2022/10/01 14:51:23;;;;;;;;;;;;;;;;;;5009958;28;1420;-75
2022/10/01 14:53:50;;;;;;;;;;;;;;;;;;5019638;28;1115;-75
2022/10/01 14:56:16;;;;;;;;;;;;;;;;;;5030562;28;1296;-76
2022/10/01 14:58:43;;;;;;;;;;;;;;;;;;5022388;28;1417;-77
2022/10/01 15:01:13;;;;;;;;;;;;;;;;;;4997791;28;1584;-77
2022/10/01 15:03:39;;;;;;;;;;;;;;;;;;5023951;28;1429;-77
2022/10/01 15:06:10;;;;;;;;;;;;;;;;;;5011989;28;1718;-77
2022/10/01 15:08:37;;;;;;;;;;;;;;;;;;5016912;28;1922;-77
2022/10/01 15:11:06;;;;;;;;;;;;;;;;;;5018476;28;1432;-78
2022/10/01 15:13:32;;;;;;;;;;;;;;;;;;5010083;28;1449;-77
2022/10/01 15:15:58;;;;;;;;;;;;;;;;;;5017166;28;1430;-77
2022/10/01 15:18:25;;;;;;;;;;;;;;;;;;5006002;28;1552;-77
2022/10/01 15:20:55;;;;;;;;;;;;;;;;;;5020651;28;1382;-77
2022/10/01 15:23:21;;;;;;;;;;;;;;;;;;4999102;28;1591;-77
2022/10/01 15:25:47;;;;;;;;;;;;;;;;;;5030962;28;853;-78
2022/10/01 15:28:15;;;;;;;;;;;;;;;;;;5016143;28;1920;-77
2022/10/01 15:30:42;;;;;;;;;;;;;;;;;;4993294;28;1341;-78
2022/10/01 15:33:09;;;;;;;;;;;;;;;;;;5010017;28;1127;-77
2022/10/01 15:35:35;;;;;;;;;;;;;;;;;;5010167;28;1072;-77
2022/10/01 15:38:01;;;;;;;;;;;;;;;;;;5010734;28;1123;-77
2022/10/01 15:40:28;;;;;;;;;;;;;;;;;;5010827;28;1372;-77
2022/10/01 15:43:22;;;;;;;;;;;;;;;;;;5010493;28;1073;-77
2022/10/01 15:46:01;;;;;;;;;;;;;;;;;;5010948;28;745;-78
2022/10/01 15:48:28;;;;;;;;;;;;;;;;;;5010734;28;1910;-77
2022/10/01 15:50:56;;;;;;;;;;;;;;;;;;5010537;28;1323;-77
2022/10/01 15:53:23;;;;;;;;;;;;;;;;;;4992736;28;1045;-77
2022/10/01 15:55:49;;;;;;;;;;;;;;;;;;5017314;28;1453;-77
2022/10/01 15:58:18;;;;;;;;;;;;;;;;;;5013088;28;1605;-78
2022/10/01 16:00:53;;;;;;;;;;;;;;;;;;5011552;28;1368;-78
2022/10/01 16:03:22;;;;;;;;;;;;;;;;;;5017502;28;1389;-77
2022/10/01 16:05:48;;;;;;;;;;;;;;;;;;4995986;28;1563;-76
2022/10/01 16:08:17;;;;;;;;;;;;;;;;;;5018411;28;1910;-77
2022/10/01 16:10:44;;;;;;;;;;;;;;;;;;5000188;28;1551;-77
2022/10/01 16:13:30;;;;;;;;;;;;;;;;;;4999441;28;1432;-78
2022/10/01 16:16:07;;;;;;;;;;;;;;;;;;5006825;28;1498;-78
2022/10/01 16:18:33;;;;;;;;;;;;;;;;;;5014548;28;1361;-78
2022/10/01 16:21:00;;;;;;;;;;;;;;;;;;4994034;28;1630;-77
2022/10/01 16:23:36;;;;;;;;;;;;;;;;;;5012431;28;1431;-77
2022/10/01 16:26:03;;;;;;;;;;;;;;;;;;5011724;28;1369;-77
2022/10/01 16:28:30;;;;;;;;;;;;;;;;;;5016289;28;1906;-78
2022/10/01 16:30:56;;;;;;;;;;;;;;;;;;5015271;28;1531;-77
2022/10/01 16:33:25;;;;;;;;;;;;;;;;;;5007704;28;1524;-77
2022/10/01 16:35:51;;;;;;;;;;;;;;;;;;5003648;28;1444;-77
2022/10/01 16:38:18;;;;;;;;;;;;;;;;;;5013668;28;1375;-77
2022/10/01 16:40:46;;;;;;;;;;;;;;;;;;4996248;28;1569;-77
2022/10/01 16:43:14;;;;;;;;;;;;;;;;;;5019126;28;1361;-77
2022/10/01 16:45:41;;;;;;;;;;;;;;;;;;5024835;28;1233;-77
2022/10/01 16:48:09;;;;;;;;;;;;;;;;;;5032066;28;1918;-77
2022/10/01 16:50:37;;;;;;;;;;;;;;;;;;5030562;28;1309;-76
2022/10/01 16:53:03;;;;;;;;;;;;;;;;;;5028729;28;1120;-76
2022/10/01 16:55:36;;;;;;;;;;;;;;;;;;5028660;28;1075;-76
2022/10/01 16:58:03;;;;;;;;;;;;;;;;;;5026946;28;768;-76
2022/10/01 17:00:29;;;;;;;;;;;;;;;;;;5026613;28;1309;-76
2022/10/01 17:02:56;;;;;;;;;;;;;;;;;;5027427;28;1072;-76
2022/10/01 17:05:24;;;;;;;;;;;;;;;;;;5027664;28;960;-77
2022/10/01 17:07:51;;;;;;;;;;;;;;;;;;5052510;22;2010;-70
2022/10/01 17:10:18;;;;;;;;;;;;;;;;;;5066040;28;1985;-70
2022/10/01 17:12:46;;;;;;;;;;;;;;;;;;5068283;28;1070;-70
2022/10/01 17:15:14;;;;;;;;;;;;;;;;;;5071046;28;797;-70
2022/10/01 17:17:40;;;;;;;;;;;;;;;;;;5075169;28;1593;-70
2022/10/01 17:20:07;;;;;;;;;;;;;;;;;;5090985;28;987;-71
2022/10/01 17:22:33;;;;;;;;;;;;;;;;;;5090701;28;937;-70
2022/10/01 17:25:01;;;;;;;;;;;;;;;;;;5091156;28;1079;-70
2022/10/01 17:27:27;;;;;;;;;;;;;;;;;;5091130;28;1418;-70
2022/10/01 17:29:53;;;;;;;;;;;;;;;;;;5094983;28;1979;-71